sensor_id;sensor_type;location;lat;lon;timestamp;P1;durP1;ratioP1;P2;durP2;ratioP2
61389;SDS011;47260;48.274;19.814;2023-04-03T00:01:18;11.23;;;7.03;;
61389;SDS011;47260;48.274;19.814;2023-04-03T00:02:50;13.63;;;7.65;;
61389;SDS011;47260;48.274;19.814;2023-04-03T00:04:21;10.38;;;6.72;;
61389;SDS011;47260;48.274;19.814;2023-04-03T00:05:53;8.07;;;4.53;;
61389;SDS011;47260;48.274;19.814;2023-04-03T00:07:23;8.07;;;4.75;;
61389;SDS011;47260;48.274;19.814;2023-04-03T00:08:55;8.93;;;4.80;;
61389;SDS011;47260;48.274;19.814;2023-04-03T00:10:27;13.75;;;8.10;;
61389;SDS011;47260;48.274;19.814;2023-04-03T00:11:59;18.40;;;9.27;;
61389;SDS011;47260;48.274;19.814;2023-04-03T00:13:32;13.75;;;8.75;;
61389;SDS011;47260;48.274;19.814;2023-04-03T00:15:03;11.27;;;6.72;;
61389;SDS011;47260;48.274;19.814;2023-04-03T00:16:36;10.32;;;6.50;;
61389;SDS011;47260;48.274;19.814;2023-04-03T00:18:08;14.40;;;7.78;;
61389;SDS011;47260;48.274;19.814;2023-04-03T00:19:39;13.07;;;7.43;;
61389;SDS011;47260;48.274;19.814;2023-04-03T00:21:12;14.80;;;9.02;;
61389;SDS011;47260;48.274;19.814;2023-04-03T00:22:44;15.63;;;9.73;;
61389;SDS011;47260;48.274;19.814;2023-04-03T00:24:16;21.65;;;12.52;;
61389;SDS011;47260;48.274;19.814;2023-04-03T00:25:47;15.93;;;8.80;;
61389;SDS011;47260;48.274;19.814;2023-04-03T00:27:19;15.90;;;8.98;;
61389;SDS011;47260;48.274;19.814;2023-04-03T00:28:53;12.02;;;7.05;;
61389;SDS011;47260;48.274;19.814;2023-04-03T00:30:25;12.55;;;7.68;;
61389;SDS011;47260;48.274;19.814;2023-04-03T00:31:56;16.15;;;9.73;;
61389;SDS011;47260;48.274;19.814;2023-04-03T00:33:27;10.65;;;6.78;;
61389;SDS011;47260;48.274;19.814;2023-04-03T00:34:58;14.45;;;7.78;;
61389;SDS011;47260;48.274;19.814;2023-04-03T00:36:30;11.48;;;7.40;;
61389;SDS011;47260;48.274;19.814;2023-04-03T00:38:01;12.23;;;6.93;;
61389;SDS011;47260;48.274;19.814;2023-04-03T00:39:32;9.23;;;5.95;;
61389;SDS011;47260;48.274;19.814;2023-04-03T00:41:04;9.10;;;5.63;;
61389;SDS011;47260;48.274;19.814;2023-04-03T00:42:36;13.45;;;7.68;;
61389;SDS011;47260;48.274;19.814;2023-04-03T00:44:22;11.77;;;7.53;;
61389;SDS011;47260;48.274;19.814;2023-04-03T00:46:14;13.80;;;8.27;;
61389;SDS011;47260;48.274;19.814;2023-04-03T00:47:46;11.70;;;6.32;;
61389;SDS011;47260;48.274;19.814;2023-04-03T00:49:16;14.27;;;7.85;;
61389;SDS011;47260;48.274;19.814;2023-04-03T00:50:48;11.57;;;7.38;;
61389;SDS011;47260;48.274;19.814;2023-04-03T00:52:21;12.77;;;8.48;;
61389;SDS011;47260;48.274;19.814;2023-04-03T00:53:56;14.43;;;8.18;;
61389;SDS011;47260;48.274;19.814;2023-04-03T00:55:31;12.35;;;7.10;;
61389;SDS011;47260;48.274;19.814;2023-04-03T00:57:02;7.45;;;4.70;;
61389;SDS011;47260;48.274;19.814;2023-04-03T00:58:37;7.30;;;4.43;;
61389;SDS011;47260;48.274;19.814;2023-04-03T01:00:14;9.90;;;5.55;;
61389;SDS011;47260;48.274;19.814;2023-04-03T01:01:49;10.45;;;6.68;;
61389;SDS011;47260;48.274;19.814;2023-04-03T01:03:20;10.52;;;6.97;;
61389;SDS011;47260;48.274;19.814;2023-04-03T01:04:53;9.80;;;6.28;;
61389;SDS011;47260;48.274;19.814;2023-04-03T01:06:24;8.82;;;5.20;;
61389;SDS011;47260;48.274;19.814;2023-04-03T01:08:06;8.90;;;5.75;;
61389;SDS011;47260;48.274;19.814;2023-04-03T01:09:38;10.13;;;6.25;;
61389;SDS011;47260;48.274;19.814;2023-04-03T01:11:10;9.45;;;5.20;;
61389;SDS011;47260;48.274;19.814;2023-04-03T01:12:42;7.53;;;5.20;;
61389;SDS011;47260;48.274;19.814;2023-04-03T01:14:16;10.63;;;6.00;;
61389;SDS011;47260;48.274;19.814;2023-04-03T01:15:50;11.32;;;6.97;;
61389;SDS011;47260;48.274;19.814;2023-04-03T01:17:29;12.25;;;7.00;;
61389;SDS011;47260;48.274;19.814;2023-04-03T01:19:02;14.07;;;7.15;;
61389;SDS011;47260;48.274;19.814;2023-04-03T01:22:41;12.05;;;6.78;;
61389;SDS011;47260;48.274;19.814;2023-04-03T01:24:32;13.00;;;6.78;;
61389;SDS011;47260;48.274;19.814;2023-04-03T01:26:08;9.20;;;5.80;;
61389;SDS011;47260;48.274;19.814;2023-04-03T01:27:41;8.90;;;5.95;;
61389;SDS011;47260;48.274;19.814;2023-04-03T01:29:13;11.98;;;6.20;;
61389;SDS011;47260;48.274;19.814;2023-04-03T01:30:47;10.52;;;5.90;;
61389;SDS011;47260;48.274;19.814;2023-04-03T01:32:22;51.85;;;16.33;;
61389;SDS011;47260;48.274;19.814;2023-04-03T01:33:55;27.90;;;10.82;;
61389;SDS011;47260;48.274;19.814;2023-04-03T01:35:26;11.35;;;5.65;;
61389;SDS011;47260;48.274;19.814;2023-04-03T01:36:58;11.68;;;7.15;;
61389;SDS011;47260;48.274;19.814;2023-04-03T01:38:30;11.95;;;6.10;;
61389;SDS011;47260;48.274;19.814;2023-04-03T01:40:01;9.43;;;5.10;;
61389;SDS011;47260;48.274;19.814;2023-04-03T01:41:34;6.40;;;4.90;;
61389;SDS011;47260;48.274;19.814;2023-04-03T01:43:14;6.50;;;5.13;;
61389;SDS011;47260;48.274;19.814;2023-04-03T01:44:46;11.13;;;5.63;;
61389;SDS011;47260;48.274;19.814;2023-04-03T01:46:18;7.07;;;4.88;;
61389;SDS011;47260;48.274;19.814;2023-04-03T01:47:52;8.65;;;5.32;;
61389;SDS011;47260;48.274;19.814;2023-04-03T01:49:24;7.60;;;4.97;;
61389;SDS011;47260;48.274;19.814;2023-04-03T01:50:55;6.80;;;4.75;;
61389;SDS011;47260;48.274;19.814;2023-04-03T01:52:26;9.15;;;5.10;;
61389;SDS011;47260;48.274;19.814;2023-04-03T01:53:58;8.55;;;5.38;;
61389;SDS011;47260;48.274;19.814;2023-04-03T01:55:30;9.40;;;5.80;;
61389;SDS011;47260;48.274;19.814;2023-04-03T01:57:01;9.05;;;5.43;;
61389;SDS011;47260;48.274;19.814;2023-04-03T01:58:33;8.95;;;5.70;;
61389;SDS011;47260;48.274;19.814;2023-04-03T02:00:05;11.05;;;6.68;;
61389;SDS011;47260;48.274;19.814;2023-04-03T02:01:43;9.63;;;6.85;;
61389;SDS011;47260;48.274;19.814;2023-04-03T02:03:16;9.27;;;5.88;;
61389;SDS011;47260;48.274;19.814;2023-04-03T02:04:48;12.35;;;6.63;;
61389;SDS011;47260;48.274;19.814;2023-04-03T02:06:20;13.07;;;7.25;;
61389;SDS011;47260;48.274;19.814;2023-04-03T02:07:52;11.73;;;7.28;;
61389;SDS011;47260;48.274;19.814;2023-04-03T02:09:23;13.13;;;7.35;;
61389;SDS011;47260;48.274;19.814;2023-04-03T02:10:56;10.90;;;6.93;;
61389;SDS011;47260;48.274;19.814;2023-04-03T02:12:28;11.38;;;6.95;;
61389;SDS011;47260;48.274;19.814;2023-04-03T02:14:00;11.48;;;7.22;;
61389;SDS011;47260;48.274;19.814;2023-04-03T02:15:31;9.80;;;5.95;;
61389;SDS011;47260;48.274;19.814;2023-04-03T02:17:02;10.77;;;6.03;;
61389;SDS011;47260;48.274;19.814;2023-04-03T02:18:39;8.20;;;5.68;;
61389;SDS011;47260;48.274;19.814;2023-04-03T02:20:11;10.00;;;6.40;;
61389;SDS011;47260;48.274;19.814;2023-04-03T02:21:43;10.00;;;6.10;;
61389;SDS011;47260;48.274;19.814;2023-04-03T02:23:15;9.00;;;6.10;;
61389;SDS011;47260;48.274;19.814;2023-04-03T02:24:47;9.95;;;6.00;;
61389;SDS011;47260;48.274;19.814;2023-04-03T02:26:19;9.70;;;5.82;;
61389;SDS011;47260;48.274;19.814;2023-04-03T02:27:51;9.18;;;5.40;;
61389;SDS011;47260;48.274;19.814;2023-04-03T02:29:23;9.32;;;5.22;;
61389;SDS011;47260;48.274;19.814;2023-04-03T02:30:55;7.35;;;5.03;;
61389;SDS011;47260;48.274;19.814;2023-04-03T02:32:26;9.07;;;5.45;;
61389;SDS011;47260;48.274;19.814;2023-04-03T02:33:59;8.90;;;5.85;;
61389;SDS011;47260;48.274;19.814;2023-04-03T02:35:31;6.47;;;5.40;;
61389;SDS011;47260;48.274;19.814;2023-04-03T02:37:03;8.20;;;4.80;;
61389;SDS011;47260;48.274;19.814;2023-04-03T02:38:34;9.00;;;5.15;;
61389;SDS011;47260;48.274;19.814;2023-04-03T02:40:06;6.07;;;4.60;;
61389;SDS011;47260;48.274;19.814;2023-04-03T02:41:39;8.50;;;5.05;;
61389;SDS011;47260;48.274;19.814;2023-04-03T02:43:17;8.82;;;5.40;;
61389;SDS011;47260;48.274;19.814;2023-04-03T02:44:49;8.93;;;5.50;;
61389;SDS011;47260;48.274;19.814;2023-04-03T02:46:20;8.48;;;4.68;;
61389;SDS011;47260;48.274;19.814;2023-04-03T02:47:51;9.35;;;5.38;;
61389;SDS011;47260;48.274;19.814;2023-04-03T02:49:24;8.48;;;5.03;;
61389;SDS011;47260;48.274;19.814;2023-04-03T02:50:56;7.55;;;4.97;;
61389;SDS011;47260;48.274;19.814;2023-04-03T02:52:27;7.68;;;5.10;;
61389;SDS011;47260;48.274;19.814;2023-04-03T02:54:01;8.70;;;5.55;;
61389;SDS011;47260;48.274;19.814;2023-04-03T02:55:37;7.10;;;5.30;;
61389;SDS011;47260;48.274;19.814;2023-04-03T02:57:08;8.88;;;5.78;;
61389;SDS011;47260;48.274;19.814;2023-04-03T02:58:40;8.77;;;5.22;;
61389;SDS011;47260;48.274;19.814;2023-04-03T03:00:13;11.15;;;6.53;;
61389;SDS011;47260;48.274;19.814;2023-04-03T03:01:44;9.82;;;6.20;;
61389;SDS011;47260;48.274;19.814;2023-04-03T03:03:16;11.70;;;7.32;;
61389;SDS011;47260;48.274;19.814;2023-04-03T03:04:48;10.32;;;6.22;;
61389;SDS011;47260;48.274;19.814;2023-04-03T03:06:20;12.48;;;6.82;;
61389;SDS011;47260;48.274;19.814;2023-04-03T03:07:51;8.57;;;5.60;;
61389;SDS011;47260;48.274;19.814;2023-04-03T03:09:23;8.07;;;5.63;;
61389;SDS011;47260;48.274;19.814;2023-04-03T03:10:55;8.70;;;5.75;;
61389;SDS011;47260;48.274;19.814;2023-04-03T03:12:27;10.07;;;5.70;;
61389;SDS011;47260;48.274;19.814;2023-04-03T03:14:00;9.50;;;5.40;;
61389;SDS011;47260;48.274;19.814;2023-04-03T03:15:31;9.57;;;6.55;;
61389;SDS011;47260;48.274;19.814;2023-04-03T03:17:03;10.07;;;6.72;;
61389;SDS011;47260;48.274;19.814;2023-04-03T03:18:35;8.82;;;6.30;;
61389;SDS011;47260;48.274;19.814;2023-04-03T03:20:08;10.25;;;6.15;;
61389;SDS011;47260;48.274;19.814;2023-04-03T03:21:41;11.48;;;6.35;;
61389;SDS011;47260;48.274;19.814;2023-04-03T03:23:13;12.38;;;6.38;;
61389;SDS011;47260;48.274;19.814;2023-04-03T03:24:45;10.93;;;6.40;;
61389;SDS011;47260;48.274;19.814;2023-04-03T03:26:16;12.10;;;7.38;;
61389;SDS011;47260;48.274;19.814;2023-04-03T03:27:48;10.25;;;5.95;;
61389;SDS011;47260;48.274;19.814;2023-04-03T03:29:20;10.73;;;6.28;;
61389;SDS011;47260;48.274;19.814;2023-04-03T03:30:52;11.93;;;6.78;;
61389;SDS011;47260;48.274;19.814;2023-04-03T03:32:24;11.82;;;6.55;;
61389;SDS011;47260;48.274;19.814;2023-04-03T03:33:56;9.45;;;6.05;;
61389;SDS011;47260;48.274;19.814;2023-04-03T03:35:29;9.32;;;6.47;;
61389;SDS011;47260;48.274;19.814;2023-04-03T03:37:01;12.93;;;6.57;;
61389;SDS011;47260;48.274;19.814;2023-04-03T03:38:32;11.55;;;6.78;;
61389;SDS011;47260;48.274;19.814;2023-04-03T03:40:06;10.20;;;6.10;;
61389;SDS011;47260;48.274;19.814;2023-04-03T03:41:38;11.93;;;6.80;;
61389;SDS011;47260;48.274;19.814;2023-04-03T03:43:09;9.90;;;6.28;;
61389;SDS011;47260;48.274;19.814;2023-04-03T03:44:41;10.25;;;6.78;;
61389;SDS011;47260;48.274;19.814;2023-04-03T03:46:13;10.45;;;5.63;;
61389;SDS011;47260;48.274;19.814;2023-04-03T03:47:45;10.15;;;5.55;;
61389;SDS011;47260;48.274;19.814;2023-04-03T03:49:16;8.73;;;4.85;;
61389;SDS011;47260;48.274;19.814;2023-04-03T03:50:50;8.88;;;6.40;;
61389;SDS011;47260;48.274;19.814;2023-04-03T03:52:22;8.80;;;5.15;;
61389;SDS011;47260;48.274;19.814;2023-04-03T03:53:54;10.82;;;7.05;;
61389;SDS011;47260;48.274;19.814;2023-04-03T03:55:25;8.80;;;6.05;;
61389;SDS011;47260;48.274;19.814;2023-04-03T03:56:58;8.55;;;6.00;;
61389;SDS011;47260;48.274;19.814;2023-04-03T03:58:30;13.10;;;6.22;;
61389;SDS011;47260;48.274;19.814;2023-04-03T04:00:03;13.07;;;7.18;;
61389;SDS011;47260;48.274;19.814;2023-04-03T04:01:45;11.48;;;7.15;;
61389;SDS011;47260;48.274;19.814;2023-04-03T04:03:17;13.63;;;6.63;;
61389;SDS011;47260;48.274;19.814;2023-04-03T04:04:51;13.40;;;7.55;;
61389;SDS011;47260;48.274;19.814;2023-04-03T04:06:25;13.07;;;6.63;;
61389;SDS011;47260;48.274;19.814;2023-04-03T04:08:00;11.05;;;7.03;;
61389;SDS011;47260;48.274;19.814;2023-04-03T04:09:31;11.80;;;7.43;;
61389;SDS011;47260;48.274;19.814;2023-04-03T04:11:03;12.18;;;6.75;;
61389;SDS011;47260;48.274;19.814;2023-04-03T04:12:34;12.55;;;7.20;;
61389;SDS011;47260;48.274;19.814;2023-04-03T04:14:06;11.88;;;7.22;;
61389;SDS011;47260;48.274;19.814;2023-04-03T04:15:41;11.13;;;7.60;;
61389;SDS011;47260;48.274;19.814;2023-04-03T04:17:12;14.40;;;7.90;;
61389;SDS011;47260;48.274;19.814;2023-04-03T04:18:44;12.20;;;7.28;;
61389;SDS011;47260;48.274;19.814;2023-04-03T04:20:16;10.02;;;6.68;;
61389;SDS011;47260;48.274;19.814;2023-04-03T04:21:49;9.32;;;6.82;;
61389;SDS011;47260;48.274;19.814;2023-04-03T04:23:22;9.45;;;6.50;;
61389;SDS011;47260;48.274;19.814;2023-04-03T04:24:54;12.05;;;6.93;;
61389;SDS011;47260;48.274;19.814;2023-04-03T04:26:26;10.60;;;6.68;;
61389;SDS011;47260;48.274;19.814;2023-04-03T04:27:58;11.48;;;6.28;;
61389;SDS011;47260;48.274;19.814;2023-04-03T04:29:30;11.48;;;6.90;;
61389;SDS011;47260;48.274;19.814;2023-04-03T04:31:05;8.70;;;5.75;;
61389;SDS011;47260;48.274;19.814;2023-04-03T04:32:37;10.38;;;6.30;;
61389;SDS011;47260;48.274;19.814;2023-04-03T04:34:09;10.80;;;6.32;;
61389;SDS011;47260;48.274;19.814;2023-04-03T04:35:42;10.55;;;7.28;;
61389;SDS011;47260;48.274;19.814;2023-04-03T04:37:16;9.60;;;7.13;;
61389;SDS011;47260;48.274;19.814;2023-04-03T04:38:48;13.57;;;7.45;;
61389;SDS011;47260;48.274;19.814;2023-04-03T04:40:23;10.07;;;6.70;;
61389;SDS011;47260;48.274;19.814;2023-04-03T04:41:55;11.93;;;8.00;;
61389;SDS011;47260;48.274;19.814;2023-04-03T04:43:29;10.43;;;6.95;;
61389;SDS011;47260;48.274;19.814;2023-04-03T04:45:01;11.02;;;6.80;;
61389;SDS011;47260;48.274;19.814;2023-04-03T04:46:33;12.27;;;6.72;;
61389;SDS011;47260;48.274;19.814;2023-04-03T04:48:05;11.85;;;7.38;;
61389;SDS011;47260;48.274;19.814;2023-04-03T04:49:37;9.18;;;6.75;;
61389;SDS011;47260;48.274;19.814;2023-04-03T04:51:09;8.70;;;6.18;;
61389;SDS011;47260;48.274;19.814;2023-04-03T04:52:43;14.93;;;9.10;;
61389;SDS011;47260;48.274;19.814;2023-04-03T04:54:15;14.32;;;9.20;;
61389;SDS011;47260;48.274;19.814;2023-04-03T04:55:47;10.07;;;7.05;;
61389;SDS011;47260;48.274;19.814;2023-04-03T04:57:19;13.07;;;7.50;;
61389;SDS011;47260;48.274;19.814;2023-04-03T04:58:51;10.70;;;7.22;;
61389;SDS011;47260;48.274;19.814;2023-04-03T05:00:24;12.52;;;8.77;;
61389;SDS011;47260;48.274;19.814;2023-04-03T05:01:56;10.20;;;6.60;;
61389;SDS011;47260;48.274;19.814;2023-04-03T05:03:29;12.70;;;8.05;;
61389;SDS011;47260;48.274;19.814;2023-04-03T05:05:02;8.52;;;6.38;;
61389;SDS011;47260;48.274;19.814;2023-04-03T05:06:34;11.13;;;7.93;;
61389;SDS011;47260;48.274;19.814;2023-04-03T05:08:10;13.05;;;7.40;;
61389;SDS011;47260;48.274;19.814;2023-04-03T05:09:43;11.32;;;7.20;;
61389;SDS011;47260;48.274;19.814;2023-04-03T05:11:16;6.85;;;4.80;;
61389;SDS011;47260;48.274;19.814;2023-04-03T05:12:49;8.25;;;6.28;;
61389;SDS011;47260;48.274;19.814;2023-04-03T05:14:20;3.20;;;2.90;;
61389;SDS011;47260;48.274;19.814;2023-04-03T05:15:51;3.20;;;2.30;;
61389;SDS011;47260;48.274;19.814;2023-04-03T05:17:23;5.70;;;3.92;;
61389;SDS011;47260;48.274;19.814;2023-04-03T05:18:58;3.50;;;2.92;;
61389;SDS011;47260;48.274;19.814;2023-04-03T05:20:30;5.13;;;3.80;;
61389;SDS011;47260;48.274;19.814;2023-04-03T05:22:02;8.65;;;6.28;;
61389;SDS011;47260;48.274;19.814;2023-04-03T05:23:35;4.03;;;3.58;;
61389;SDS011;47260;48.274;19.814;2023-04-03T05:25:08;4.40;;;2.75;;
61389;SDS011;47260;48.274;19.814;2023-04-03T05:26:41;3.88;;;2.78;;
61389;SDS011;47260;48.274;19.814;2023-04-03T05:28:13;4.13;;;2.85;;
61389;SDS011;47260;48.274;19.814;2023-04-03T05:29:45;5.35;;;2.63;;
61389;SDS011;47260;48.274;19.814;2023-04-03T05:31:23;3.83;;;2.70;;
61389;SDS011;47260;48.274;19.814;2023-04-03T05:32:55;4.35;;;2.80;;
61389;SDS011;47260;48.274;19.814;2023-04-03T05:34:37;3.30;;;2.78;;
61389;SDS011;47260;48.274;19.814;2023-04-03T05:36:09;4.70;;;3.60;;
61389;SDS011;47260;48.274;19.814;2023-04-03T05:37:45;4.07;;;3.28;;
61389;SDS011;47260;48.274;19.814;2023-04-03T05:39:21;3.75;;;2.80;;
61389;SDS011;47260;48.274;19.814;2023-04-03T05:40:53;6.13;;;4.05;;
61389;SDS011;47260;48.274;19.814;2023-04-03T05:42:25;5.65;;;3.35;;
61389;SDS011;47260;48.274;19.814;2023-04-03T05:43:57;8.80;;;6.05;;
61389;SDS011;47260;48.274;19.814;2023-04-03T05:45:29;5.18;;;3.35;;
61389;SDS011;47260;48.274;19.814;2023-04-03T05:47:02;6.75;;;3.70;;
61389;SDS011;47260;48.274;19.814;2023-04-03T05:48:34;5.85;;;4.25;;
61389;SDS011;47260;48.274;19.814;2023-04-03T05:50:07;6.72;;;5.30;;
61389;SDS011;47260;48.274;19.814;2023-04-03T05:51:39;6.88;;;4.72;;
61389;SDS011;47260;48.274;19.814;2023-04-03T05:53:27;6.05;;;3.92;;
61389;SDS011;47260;48.274;19.814;2023-04-03T05:55:05;10.55;;;4.95;;
61389;SDS011;47260;48.274;19.814;2023-04-03T05:56:39;8.48;;;5.30;;
61389;SDS011;47260;48.274;19.814;2023-04-03T05:58:11;8.52;;;5.32;;
61389;SDS011;47260;48.274;19.814;2023-04-03T05:59:44;4.50;;;3.05;;
61389;SDS011;47260;48.274;19.814;2023-04-03T06:01:17;4.90;;;3.63;;
61389;SDS011;47260;48.274;19.814;2023-04-03T06:02:49;4.07;;;3.28;;
61389;SDS011;47260;48.274;19.814;2023-04-03T06:04:25;3.72;;;2.78;;
61389;SDS011;47260;48.274;19.814;2023-04-03T06:05:57;2.33;;;2.13;;
61389;SDS011;47260;48.274;19.814;2023-04-03T06:07:29;2.40;;;1.98;;
61389;SDS011;47260;48.274;19.814;2023-04-03T06:09:01;2.97;;;2.35;;
61389;SDS011;47260;48.274;19.814;2023-04-03T06:10:34;3.58;;;2.10;;
61389;SDS011;47260;48.274;19.814;2023-04-03T06:12:06;3.72;;;3.10;;
61389;SDS011;47260;48.274;19.814;2023-04-03T06:13:38;3.13;;;2.42;;
61389;SDS011;47260;48.274;19.814;2023-04-03T06:15:10;3.67;;;2.72;;
61389;SDS011;47260;48.274;19.814;2023-04-03T06:16:44;2.85;;;2.47;;
61389;SDS011;47260;48.274;19.814;2023-04-03T06:18:16;3.80;;;2.80;;
61389;SDS011;47260;48.274;19.814;2023-04-03T06:19:48;3.47;;;2.50;;
61389;SDS011;47260;48.274;19.814;2023-04-03T06:21:20;4.03;;;3.50;;
61389;SDS011;47260;48.274;19.814;2023-04-03T06:22:51;3.63;;;2.85;;
61389;SDS011;47260;48.274;19.814;2023-04-03T06:24:23;2.80;;;2.20;;
61389;SDS011;47260;48.274;19.814;2023-04-03T06:25:56;2.40;;;1.70;;
61389;SDS011;47260;48.274;19.814;2023-04-03T06:27:28;1.48;;;1.20;;
61389;SDS011;47260;48.274;19.814;2023-04-03T06:29:00;2.50;;;1.95;;
61389;SDS011;47260;48.274;19.814;2023-04-03T06:30:32;1.80;;;1.50;;
61389;SDS011;47260;48.274;19.814;2023-04-03T06:32:04;2.95;;;1.73;;
61389;SDS011;47260;48.274;19.814;2023-04-03T06:33:34;2.17;;;1.27;;
61389;SDS011;47260;48.274;19.814;2023-04-03T06:35:07;3.08;;;1.60;;
61389;SDS011;47260;48.274;19.814;2023-04-03T06:36:39;1.50;;;1.27;;
61389;SDS011;47260;48.274;19.814;2023-04-03T06:38:11;1.83;;;1.70;;
61389;SDS011;47260;48.274;19.814;2023-04-03T06:39:43;1.50;;;1.40;;
61389;SDS011;47260;48.274;19.814;2023-04-03T06:41:16;1.65;;;1.50;;
61389;SDS011;47260;48.274;19.814;2023-04-03T06:42:48;2.25;;;1.40;;
61389;SDS011;47260;48.274;19.814;2023-04-03T06:44:21;2.08;;;1.40;;
61389;SDS011;47260;48.274;19.814;2023-04-03T06:45:53;1.40;;;1.27;;
61389;SDS011;47260;48.274;19.814;2023-04-03T06:47:25;1.63;;;1.52;;
61389;SDS011;47260;48.274;19.814;2023-04-03T06:48:57;2.40;;;2.00;;
61389;SDS011;47260;48.274;19.814;2023-04-03T06:50:28;1.45;;;1.27;;
61389;SDS011;47260;48.274;19.814;2023-04-03T06:52:00;1.50;;;1.40;;
61389;SDS011;47260;48.274;19.814;2023-04-03T06:53:32;2.55;;;1.60;;
61389;SDS011;47260;48.274;19.814;2023-04-03T06:55:04;2.10;;;1.58;;
61389;SDS011;47260;48.274;19.814;2023-04-03T06:56:37;2.10;;;1.50;;
61389;SDS011;47260;48.274;19.814;2023-04-03T06:58:09;1.90;;;1.42;;
61389;SDS011;47260;48.274;19.814;2023-04-03T06:59:40;1.55;;;1.45;;
61389;SDS011;47260;48.274;19.814;2023-04-03T07:01:13;2.10;;;1.70;;
61389;SDS011;47260;48.274;19.814;2023-04-03T07:02:50;3.53;;;1.70;;
61389;SDS011;47260;48.274;19.814;2023-04-03T07:04:21;1.60;;;1.40;;
61389;SDS011;47260;48.274;19.814;2023-04-03T07:05:53;1.52;;;1.35;;
61389;SDS011;47260;48.274;19.814;2023-04-03T07:07:25;3.00;;;1.35;;
61389;SDS011;47260;48.274;19.814;2023-04-03T07:08:57;3.28;;;1.50;;
61389;SDS011;47260;48.274;19.814;2023-04-03T07:10:29;2.90;;;2.00;;
61389;SDS011;47260;48.274;19.814;2023-04-03T07:12:02;2.20;;;1.40;;
61389;SDS011;47260;48.274;19.814;2023-04-03T07:13:34;1.75;;;1.10;;
61389;SDS011;47260;48.274;19.814;2023-04-03T07:15:06;1.55;;;0.77;;
61389;SDS011;47260;48.274;19.814;2023-04-03T07:16:39;1.33;;;0.80;;
61389;SDS011;47260;48.274;19.814;2023-04-03T07:18:11;0.60;;;0.50;;
61389;SDS011;47260;48.274;19.814;2023-04-03T07:19:42;0.52;;;0.52;;
61389;SDS011;47260;48.274;19.814;2023-04-03T07:21:14;0.68;;;0.63;;
61389;SDS011;47260;48.274;19.814;2023-04-03T07:22:46;0.82;;;0.60;;
61389;SDS011;47260;48.274;19.814;2023-04-03T07:24:17;0.50;;;0.50;;
61389;SDS011;47260;48.274;19.814;2023-04-03T07:25:49;0.60;;;0.60;;
61389;SDS011;47260;48.274;19.814;2023-04-03T07:27:24;0.50;;;0.50;;
61389;SDS011;47260;48.274;19.814;2023-04-03T07:28:55;1.20;;;0.80;;
61389;SDS011;47260;48.274;19.814;2023-04-03T07:30:27;1.67;;;1.02;;
61389;SDS011;47260;48.274;19.814;2023-04-03T07:31:59;1.65;;;1.15;;
61389;SDS011;47260;48.274;19.814;2023-04-03T07:33:31;1.52;;;0.70;;
61389;SDS011;47260;48.274;19.814;2023-04-03T07:35:03;2.92;;;1.92;;
61389;SDS011;47260;48.274;19.814;2023-04-03T07:36:35;1.88;;;0.55;;
61389;SDS011;47260;48.274;19.814;2023-04-03T07:38:07;0.65;;;0.60;;
61389;SDS011;47260;48.274;19.814;2023-04-03T07:39:39;1.50;;;1.08;;
61389;SDS011;47260;48.274;19.814;2023-04-03T07:41:12;1.20;;;1.00;;
61389;SDS011;47260;48.274;19.814;2023-04-03T07:42:49;0.70;;;0.60;;
61389;SDS011;47260;48.274;19.814;2023-04-03T07:44:20;0.85;;;0.70;;
61389;SDS011;47260;48.274;19.814;2023-04-03T07:45:52;0.80;;;0.50;;
61389;SDS011;47260;48.274;19.814;2023-04-03T07:47:24;1.25;;;0.95;;
61389;SDS011;47260;48.274;19.814;2023-04-03T07:48:56;0.82;;;0.75;;
61389;SDS011;47260;48.274;19.814;2023-04-03T07:50:27;0.80;;;0.80;;
61389;SDS011;47260;48.274;19.814;2023-04-03T07:52:00;0.68;;;0.50;;
61389;SDS011;47260;48.274;19.814;2023-04-03T07:53:32;0.57;;;0.50;;
61389;SDS011;47260;48.274;19.814;2023-04-03T07:55:04;0.65;;;0.50;;
61389;SDS011;47260;48.274;19.814;2023-04-03T07:56:36;3.38;;;2.10;;
61389;SDS011;47260;48.274;19.814;2023-04-03T07:58:10;2.70;;;1.30;;
61389;SDS011;47260;48.274;19.814;2023-04-03T07:59:43;1.95;;;0.90;;
61389;SDS011;47260;48.274;19.814;2023-04-03T08:01:14;0.80;;;0.60;;
61389;SDS011;47260;48.274;19.814;2023-04-03T08:02:46;1.00;;;0.80;;
61389;SDS011;47260;48.274;19.814;2023-04-03T08:04:20;0.90;;;0.77;;
61389;SDS011;47260;48.274;19.814;2023-04-03T08:05:52;1.40;;;1.00;;
61389;SDS011;47260;48.274;19.814;2023-04-03T08:07:24;1.17;;;0.88;;
61389;SDS011;47260;48.274;19.814;2023-04-03T08:08:55;3.22;;;1.77;;
61389;SDS011;47260;48.274;19.814;2023-04-03T08:10:29;2.28;;;1.25;;
61389;SDS011;47260;48.274;19.814;2023-04-03T08:12:00;2.00;;;1.10;;
61389;SDS011;47260;48.274;19.814;2023-04-03T08:13:34;2.45;;;1.42;;
61389;SDS011;47260;48.274;19.814;2023-04-03T08:15:06;1.77;;;1.05;;
61389;SDS011;47260;48.274;19.814;2023-04-03T08:16:39;2.63;;;1.52;;
61389;SDS011;47260;48.274;19.814;2023-04-03T08:18:11;2.85;;;1.70;;
61389;SDS011;47260;48.274;19.814;2023-04-03T08:19:42;0.90;;;0.73;;
61389;SDS011;47260;48.274;19.814;2023-04-03T08:21:14;0.45;;;0.45;;
61389;SDS011;47260;48.274;19.814;2023-04-03T08:22:46;0.75;;;0.50;;
61389;SDS011;47260;48.274;19.814;2023-04-03T08:24:18;0.82;;;0.32;;
61389;SDS011;47260;48.274;19.814;2023-04-03T08:25:49;0.50;;;0.50;;
61389;SDS011;47260;48.274;19.814;2023-04-03T08:27:21;0.45;;;0.45;;
61389;SDS011;47260;48.274;19.814;2023-04-03T08:28:54;1.27;;;0.63;;
61389;SDS011;47260;48.274;19.814;2023-04-03T08:30:26;1.45;;;1.17;;
61389;SDS011;47260;48.274;19.814;2023-04-03T08:31:57;0.60;;;0.60;;
61389;SDS011;47260;48.274;19.814;2023-04-03T08:33:29;3.50;;;1.20;;
61389;SDS011;47260;48.274;19.814;2023-04-03T08:35:01;1.30;;;1.20;;
61389;SDS011;47260;48.274;19.814;2023-04-03T08:36:33;1.83;;;0.55;;
61389;SDS011;47260;48.274;19.814;2023-04-03T08:38:05;0.82;;;0.70;;
61389;SDS011;47260;48.274;19.814;2023-04-03T08:39:37;0.40;;;0.40;;
61389;SDS011;47260;48.274;19.814;2023-04-03T08:41:11;1.38;;;0.50;;
61389;SDS011;47260;48.274;19.814;2023-04-03T08:42:49;0.95;;;0.50;;
61389;SDS011;47260;48.274;19.814;2023-04-03T08:44:31;0.65;;;0.50;;
61389;SDS011;47260;48.274;19.814;2023-04-03T08:46:11;0.73;;;0.73;;
61389;SDS011;47260;48.274;19.814;2023-04-03T08:47:46;0.60;;;0.38;;
61389;SDS011;47260;48.274;19.814;2023-04-03T08:49:24;1.00;;;0.45;;
61389;SDS011;47260;48.274;19.814;2023-04-03T08:51:00;1.10;;;0.40;;
61389;SDS011;47260;48.274;19.814;2023-04-03T08:52:35;0.93;;;0.70;;
61389;SDS011;47260;48.274;19.814;2023-04-03T08:54:13;0.93;;;0.75;;
61389;SDS011;47260;48.274;19.814;2023-04-03T08:55:53;1.75;;;0.80;;
61389;SDS011;47260;48.274;19.814;2023-04-03T08:57:28;2.70;;;0.75;;
61389;SDS011;47260;48.274;19.814;2023-04-03T08:59:03;1.02;;;0.80;;
61389;SDS011;47260;48.274;19.814;2023-04-03T09:00:41;2.65;;;0.73;;
61389;SDS011;47260;48.274;19.814;2023-04-03T09:02:23;2.47;;;1.08;;
61389;SDS011;47260;48.274;19.814;2023-04-03T09:03:58;0.60;;;0.60;;
61389;SDS011;47260;48.274;19.814;2023-04-03T09:05:34;0.85;;;0.63;;
61389;SDS011;47260;48.274;19.814;2023-04-03T09:07:13;0.85;;;0.40;;
61389;SDS011;47260;48.274;19.814;2023-04-03T09:08:55;0.65;;;0.60;;
61389;SDS011;47260;48.274;19.814;2023-04-03T09:10:37;0.75;;;0.60;;
61389;SDS011;47260;48.274;19.814;2023-04-03T09:12:13;0.90;;;0.75;;